createdAt,value
2024-02-01T00:00:03.695Z,6.47
2024-02-01T00:02:30.845Z,5.13
2024-02-01T00:04:58.170Z,3.75
2024-02-01T00:07:25.369Z,8.00
2024-02-01T00:09:52.451Z,5.38
2024-02-01T00:12:19.628Z,6.32
2024-02-01T00:14:46.779Z,8.73
2024-02-01T00:17:14.241Z,8.93
2024-02-01T00:19:41.402Z,15.05
2024-02-01T00:22:16.281Z,12.30
2024-02-01T00:24:54.071Z,10.52
2024-02-01T00:29:48.633Z,12.07
2024-02-01T00:32:15.839Z,10.27
2024-02-01T00:34:44.252Z,10.60
2024-02-01T00:37:11.424Z,9.93
2024-02-01T00:39:38.566Z,13.48
2024-02-01T00:42:06.122Z,17.77
2024-02-01T00:44:33.304Z,13.32
2024-02-01T00:47:00.550Z,9.23
2024-02-01T00:49:27.846Z,13.13
2024-02-01T00:51:55.218Z,9.18
2024-02-01T00:54:22.339Z,13.00
2024-02-01T00:56:49.482Z,10.40
2024-02-01T00:59:16.628Z,9.95
2024-02-01T01:01:43.805Z,9.40
2024-02-01T01:04:11.111Z,12.90
2024-02-01T01:06:38.271Z,9.85
2024-02-01T01:09:05.570Z,11.40
2024-02-01T01:11:33.767Z,15.98
2024-02-01T01:14:00.895Z,10.52
2024-02-01T01:16:31.467Z,12.95
2024-02-01T01:21:25.748Z,11.48
2024-02-01T01:23:52.825Z,10.43
2024-02-01T01:26:23.783Z,9.88
2024-02-01T01:28:50.878Z,10.70
2024-02-01T01:31:17.953Z,9.18
2024-02-01T01:33:45.165Z,8.57
2024-02-01T01:36:12.525Z,11.20
2024-02-01T01:38:39.728Z,7.63
2024-02-01T01:41:06.841Z,7.72
2024-02-01T01:43:33.936Z,12.07
2024-02-01T01:46:04.539Z,8.63
2024-02-01T01:48:31.906Z,13.23
2024-02-01T01:50:59.198Z,9.77
2024-02-01T01:53:26.835Z,11.50
2024-02-01T01:55:54.331Z,10.40
2024-02-01T01:58:21.515Z,14.10
2024-02-01T02:00:48.731Z,13.60
2024-02-01T02:03:16.016Z,14.45
2024-02-01T02:05:43.326Z,12.40
2024-02-01T02:08:10.517Z,16.52
2024-02-01T02:10:37.875Z,11.02
2024-02-01T02:13:05.054Z,13.10
2024-02-01T02:15:33.787Z,15.00
2024-02-01T02:18:01.122Z,14.60
2024-02-01T02:20:28.354Z,10.68
2024-02-01T02:22:56.222Z,11.40
2024-02-01T02:25:23.712Z,9.82
2024-02-01T02:27:51.168Z,10.82
2024-02-01T02:30:19.050Z,10.38
2024-02-01T02:32:46.391Z,10.77
2024-02-01T02:38:48.680Z,11.00
2024-02-01T02:41:17.563Z,11.77
2024-02-01T02:43:45.407Z,11.50
2024-02-01T02:46:12.573Z,11.95
2024-02-01T02:48:39.901Z,11.38
2024-02-01T02:51:07.215Z,12.18
2024-02-01T02:53:34.380Z,8.02
2024-02-01T02:56:01.549Z,7.28
2024-02-01T02:58:28.829Z,11.52
2024-02-01T03:00:56.022Z,13.88
2024-02-01T03:03:23.242Z,11.25
2024-02-01T03:05:50.474Z,9.68
2024-02-01T03:08:17.647Z,11.88
2024-02-01T03:10:45.379Z,10.00
2024-02-01T03:13:12.532Z,11.95
2024-02-01T03:15:39.695Z,10.90
2024-02-01T03:18:11.576Z,11.55
2024-02-01T03:20:39.079Z,8.15
2024-02-01T03:23:08.091Z,10.32
2024-02-01T03:25:35.278Z,10.00
2024-02-01T03:28:03.402Z,9.18
2024-02-01T03:30:31.458Z,8.10
2024-02-01T03:32:58.846Z,10.88
2024-02-01T03:35:26.014Z,12.82
2024-02-01T03:37:53.251Z,12.50
2024-02-01T03:40:20.947Z,13.48
2024-02-01T03:42:48.424Z,15.50
2024-02-01T03:45:15.762Z,17.70
2024-02-01T03:47:43.363Z,15.93
2024-02-01T03:50:11.140Z,20.23
2024-02-01T03:52:47.547Z,20.60
2024-02-01T03:55:17.633Z,21.40
2024-02-01T03:57:45.575Z,23.38
2024-02-01T04:00:32.085Z,17.48
2024-02-01T04:02:59.912Z,22.60
2024-02-01T04:05:27.494Z,24.08
2024-02-01T04:07:57.581Z,20.20
2024-02-01T04:10:24.640Z,18.75
2024-02-01T04:12:51.694Z,22.05
2024-02-01T04:15:18.926Z,22.70
2024-02-01T04:17:46.088Z,19.70
2024-02-01T04:20:14.790Z,20.10
2024-02-01T04:22:42.944Z,21.77
2024-02-01T04:25:10.844Z,21.25
2024-02-01T04:27:38.046Z,21.75
2024-02-01T04:30:05.873Z,21.20
2024-02-01T04:32:33.128Z,22.00
2024-02-01T04:35:05.106Z,19.33
2024-02-01T04:37:35.389Z,21.02
2024-02-01T04:40:04.572Z,21.98
2024-02-01T04:42:32.047Z,20.40
2024-02-01T04:44:59.927Z,23.02
2024-02-01T04:47:27.230Z,22.58
2024-02-01T04:49:54.478Z,20.55
2024-02-01T04:52:21.636Z,20.52
2024-02-01T04:54:48.756Z,21.83
2024-02-01T04:57:16.196Z,25.58
2024-02-01T04:59:46.286Z,28.95
2024-02-01T05:02:15.269Z,26.60
2024-02-01T05:04:45.718Z,23.83
2024-02-01T05:07:13.228Z,23.13
2024-02-01T05:09:41.425Z,26.70
2024-02-01T05:12:08.772Z,27.15
2024-02-01T05:14:39.226Z,30.00
2024-02-01T05:17:06.401Z,20.27
2024-02-01T05:19:33.949Z,21.27
2024-02-01T05:22:02.094Z,25.42
2024-02-01T05:24:29.368Z,24.90
2024-02-01T05:26:56.644Z,23.55
2024-02-01T05:29:24.216Z,20.65
2024-02-01T05:31:52.078Z,19.33
2024-02-01T05:34:19.872Z,22.52
2024-02-01T05:36:47.425Z,25.83
2024-02-01T05:39:27.161Z,26.67
2024-02-01T05:42:01.784Z,25.47
2024-02-01T05:44:29.318Z,24.33
2024-02-01T05:46:57.152Z,17.65
2024-02-01T05:49:25.296Z,20.42
2024-02-01T05:51:53.254Z,23.30
2024-02-01T05:54:21.279Z,29.02
2024-02-01T05:56:49.131Z,22.70
2024-02-01T05:59:20.391Z,20.77
2024-02-01T06:01:47.625Z,21.65
2024-02-01T06:04:15.029Z,24.40
2024-02-01T06:06:45.956Z,24.05
2024-02-01T06:09:13.393Z,22.25
2024-02-01T06:11:41.020Z,20.67
2024-02-01T06:14:08.522Z,21.23
2024-02-01T06:16:35.630Z,25.08
2024-02-01T06:19:03.922Z,22.48
2024-02-01T06:21:32.982Z,25.33
2024-02-01T06:24:00.631Z,19.20
2024-02-01T06:26:28.531Z,19.95
2024-02-01T06:29:01.309Z,21.35
2024-02-01T06:31:28.739Z,15.27
2024-02-01T06:33:56.040Z,19.02
2024-02-01T06:36:25.197Z,16.67
2024-02-01T06:39:01.800Z,14.70
2024-02-01T06:41:50.627Z,14.60
2024-02-01T06:44:27.523Z,11.80
2024-02-01T06:46:58.712Z,13.43
2024-02-01T06:49:38.728Z,12.60
2024-02-01T06:52:35.656Z,16.38
2024-02-01T06:55:06.703Z,13.50
2024-02-01T06:57:49.119Z,11.60
2024-02-01T07:00:35.360Z,13.10
2024-02-01T07:03:15.599Z,15.45
2024-02-01T07:05:52.166Z,10.23
2024-02-01T07:08:40.802Z,12.50
2024-02-01T07:11:13.860Z,12.27
2024-02-01T07:13:53.252Z,11.48
2024-02-01T07:16:25.559Z,12.82
2024-02-01T07:19:11.673Z,9.57
2024-02-01T07:21:57.719Z,11.02
2024-02-01T07:24:43.908Z,12.18
2024-02-01T07:27:29.656Z,12.32
2024-02-01T07:30:16.235Z,9.02
2024-02-01T07:33:02.192Z,10.10
2024-02-01T07:35:48.069Z,8.90
2024-02-01T07:38:34.103Z,13.05
2024-02-01T07:41:20.018Z,9.57
2024-02-01T07:44:06.008Z,10.10
2024-02-01T07:46:51.955Z,11.38
2024-02-01T07:49:37.983Z,11.10
2024-02-01T07:52:24.347Z,11.45
2024-02-01T07:55:10.133Z,9.52
2024-02-01T07:57:37.531Z,10.30
2024-02-01T08:00:05.696Z,9.48
2024-02-01T08:02:50.538Z,9.48
2024-02-01T08:05:37.016Z,9.20
2024-02-01T08:08:04.411Z,9.48
2024-02-01T08:10:31.788Z,12.18
2024-02-01T08:13:08.736Z,10.95
2024-02-01T08:15:39.343Z,9.55
2024-02-01T08:20:37.525Z,10.82
2024-02-01T08:23:05.239Z,13.68
2024-02-01T08:25:32.419Z,8.10
2024-02-01T08:27:59.948Z,8.32
2024-02-01T08:30:33.340Z,8.95
2024-02-01T08:33:06.539Z,8.68
2024-02-01T08:35:37.877Z,7.80
2024-02-01T08:38:08.527Z,12.90
2024-02-01T08:43:11.384Z,7.38
2024-02-01T08:45:41.685Z,10.68
2024-02-01T08:48:10.023Z,9.00
2024-02-01T08:50:44.178Z,6.85
2024-02-01T08:53:12.764Z,8.15
2024-02-01T08:55:40.106Z,8.00
2024-02-01T08:58:11.082Z,9.00
2024-02-01T09:00:39.310Z,7.50
2024-02-01T09:03:07.718Z,8.13
2024-02-01T09:05:35.945Z,6.63
2024-02-01T09:08:07.621Z,6.50
2024-02-01T09:10:35.603Z,6.45
2024-02-01T09:13:03.523Z,6.28
2024-02-01T09:15:34.147Z,6.60
2024-02-01T09:18:02.890Z,6.65
2024-02-01T09:20:30.138Z,5.35
2024-02-01T09:22:58.262Z,7.53
2024-02-01T09:25:26.639Z,4.05
2024-02-01T09:27:54.292Z,4.90
2024-02-01T09:30:22.233Z,6.20
2024-02-01T09:32:54.664Z,3.95
2024-02-01T09:35:22.369Z,4.55
2024-02-01T09:37:52.613Z,4.55
2024-02-01T09:40:20.593Z,4.85
2024-02-01T09:42:48.705Z,3.45
2024-02-01T09:45:15.893Z,4.32
2024-02-01T09:47:46.009Z,3.85
2024-02-01T09:50:14.217Z,4.57
2024-02-01T09:52:42.395Z,3.45
2024-02-01T09:55:09.584Z,4.32
2024-02-01T09:57:41.255Z,4.40
2024-02-01T10:00:16.229Z,3.28
2024-02-01T10:02:55.987Z,4.05
2024-02-01T10:05:29.432Z,2.33
2024-02-01T10:07:58.665Z,4.35
2024-02-01T10:10:25.758Z,3.50
2024-02-01T10:12:57.783Z,3.28
2024-02-01T10:15:28.562Z,4.25
2024-02-01T10:17:56.115Z,3.30
2024-02-01T10:20:40.888Z,3.70
2024-02-01T10:23:08.962Z,5.43
2024-02-01T10:25:40.229Z,4.63
2024-02-01T10:28:09.239Z,4.50
2024-02-01T10:30:46.571Z,5.65
2024-02-01T10:33:14.585Z,4.28
2024-02-01T10:35:43.744Z,7.03
2024-02-01T10:38:15.138Z,15.50
2024-02-01T10:40:46.228Z,4.97
2024-02-01T10:43:14.896Z,2.65
2024-02-01T10:45:42.135Z,3.80
2024-02-01T10:48:11.716Z,4.00
2024-02-01T10:50:40.334Z,3.28
2024-02-01T10:53:12.641Z,6.32
2024-02-01T10:55:43.225Z,4.82
2024-02-01T11:00:43.068Z,5.32
2024-02-01T11:03:13.344Z,5.05
2024-02-01T11:05:40.651Z,7.28
2024-02-01T11:08:17.435Z,3.13
2024-02-01T11:10:54.665Z,7.57
2024-02-01T11:13:31.272Z,5.57
2024-02-01T11:15:59.793Z,6.93
2024-02-01T11:18:27.811Z,5.25
2024-02-01T11:20:57.210Z,5.85
2024-02-01T11:23:24.568Z,6.72
2024-02-01T11:25:56.664Z,4.45
2024-02-01T11:28:30.738Z,6.82
2024-02-01T11:31:07.872Z,5.53
2024-02-01T11:33:43.392Z,9.68
2024-02-01T11:36:10.780Z,6.05
2024-02-01T11:38:37.921Z,7.05
2024-02-01T11:41:05.302Z,8.02
2024-02-01T11:43:34.011Z,6.82
2024-02-01T11:46:02.184Z,6.95
2024-02-01T11:48:29.461Z,10.95
2024-02-01T11:51:00.131Z,7.97
2024-02-01T11:53:29.218Z,6.50
2024-02-01T11:55:56.417Z,8.45
2024-02-01T11:58:25.541Z,9.75
2024-02-01T12:01:03.075Z,7.40
2024-02-01T12:03:38.838Z,6.53
2024-02-01T12:06:06.371Z,8.02
2024-02-01T12:08:35.392Z,9.07
2024-02-01T12:11:02.984Z,7.78
2024-02-01T12:13:30.299Z,10.07
2024-02-01T12:15:59.484Z,5.20
2024-02-01T12:18:26.839Z,4.18
2024-02-01T12:20:54.177Z,5.47
2024-02-01T12:23:21.500Z,6.22
2024-02-01T12:25:49.173Z,4.95
2024-02-01T12:28:16.554Z,4.85
2024-02-01T12:30:45.761Z,5.07
2024-02-01T12:33:14.534Z,5.22
2024-02-01T12:35:45.991Z,6.95
2024-02-01T12:38:15.686Z,7.78
2024-02-01T12:40:43.630Z,7.28
2024-02-01T12:43:10.870Z,4.90
2024-02-01T12:45:38.002Z,10.00
2024-02-01T12:48:05.490Z,4.90
2024-02-01T12:50:40.366Z,5.25
2024-02-01T12:53:08.570Z,5.30
2024-02-01T12:55:35.943Z,7.63
2024-02-01T12:58:04.207Z,6.60
2024-02-01T13:00:31.718Z,6.63
2024-02-01T13:03:00.970Z,9.50
2024-02-01T13:05:28.460Z,6.22
2024-02-01T13:07:55.827Z,6.97
2024-02-01T13:10:23.428Z,7.82
2024-02-01T13:12:57.875Z,6.47
2024-02-01T13:15:28.427Z,7.22
2024-02-01T13:17:56.997Z,6.18
2024-02-01T13:20:24.633Z,5.80
2024-02-01T13:22:53.537Z,8.73
2024-02-01T13:25:21.786Z,5.50
2024-02-01T13:27:50.227Z,4.93
2024-02-01T13:30:21.008Z,4.80
2024-02-01T13:32:49.901Z,8.38
2024-02-01T13:35:17.376Z,6.88
2024-02-01T13:37:47.584Z,7.70
2024-02-01T13:40:18.370Z,6.55
2024-02-01T13:42:46.175Z,5.18
2024-02-01T13:45:14.285Z,6.68
2024-02-01T13:47:42.215Z,5.95
2024-02-01T13:50:20.788Z,5.10
2024-02-01T13:52:48.019Z,6.28
2024-02-01T13:55:15.221Z,6.68
2024-02-01T13:57:42.472Z,5.03
2024-02-01T14:00:18.242Z,3.45
2024-02-01T14:02:55.033Z,5.70
2024-02-01T14:05:27.367Z,5.45
2024-02-01T14:07:55.046Z,7.00
2024-02-01T14:10:22.507Z,8.50
2024-02-01T14:12:49.821Z,7.70
2024-02-01T14:15:17.223Z,7.22
2024-02-01T14:17:44.604Z,6.22
2024-02-01T14:20:17.676Z,6.40
2024-02-01T14:22:45.272Z,5.22
2024-02-01T14:25:12.794Z,7.47
2024-02-01T14:27:40.634Z,6.95
2024-02-01T14:30:17.917Z,6.07
2024-02-01T14:32:45.867Z,5.47
2024-02-01T14:35:15.562Z,6.30
2024-02-01T14:37:43.501Z,13.57
2024-02-01T14:40:14.224Z,7.82
2024-02-01T14:42:42.611Z,9.02
2024-02-01T14:45:10.131Z,10.85
2024-02-01T14:47:38.284Z,7.35
2024-02-01T14:50:06.448Z,7.18
2024-02-01T14:52:34.036Z,11.50
2024-02-01T14:55:01.207Z,10.27
2024-02-01T14:57:28.298Z,9.00
2024-02-01T14:59:55.907Z,11.30
2024-02-01T15:02:23.212Z,9.32
2024-02-01T15:04:50.618Z,7.03
2024-02-01T15:07:17.800Z,12.70
2024-02-01T15:09:44.895Z,10.27
2024-02-01T15:12:12.030Z,13.95
2024-02-01T15:14:39.202Z,12.98
2024-02-01T15:17:07.155Z,9.73
2024-02-01T15:19:34.656Z,11.98
2024-02-01T15:22:02.070Z,9.45
2024-02-01T15:24:29.897Z,10.77
2024-02-01T15:26:57.907Z,11.07
2024-02-01T15:29:25.355Z,11.77
2024-02-01T15:31:52.953Z,11.63
2024-02-01T15:34:20.610Z,8.48
2024-02-01T15:36:47.913Z,14.82
2024-02-01T15:39:17.939Z,9.82
2024-02-01T15:41:45.799Z,7.10
2024-02-01T15:44:13.443Z,10.23
2024-02-01T15:46:40.665Z,12.13
2024-02-01T15:49:09.095Z,11.52
2024-02-01T15:51:36.806Z,13.05
2024-02-01T15:54:05.326Z,11.73
2024-02-01T15:56:32.801Z,13.05
2024-02-01T15:59:03.086Z,14.77
2024-02-01T16:01:30.714Z,8.13
2024-02-01T16:03:58.726Z,12.45
2024-02-01T16:06:26.157Z,10.13
2024-02-01T16:08:59.473Z,17.50
2024-02-01T16:11:32.696Z,12.00
2024-02-01T16:13:59.767Z,16.05
2024-02-01T16:16:30.941Z,12.80
2024-02-01T16:18:59.425Z,15.27
2024-02-01T16:21:31.932Z,11.50
2024-02-01T16:24:00.505Z,13.43
2024-02-01T16:26:28.461Z,8.88
2024-02-01T16:28:57.026Z,14.65
2024-02-01T16:31:25.823Z,17.15
2024-02-01T16:33:56.386Z,11.32
2024-02-01T16:36:23.752Z,19.42
2024-02-01T16:38:51.230Z,16.27
2024-02-01T16:41:36.015Z,13.13
2024-02-01T16:44:03.553Z,18.40
2024-02-01T16:46:45.967Z,18.58
2024-02-01T16:49:13.341Z,14.65
2024-02-01T16:51:40.722Z,9.65
2024-02-01T16:54:09.954Z,17.27
2024-02-01T16:56:37.339Z,16.67
2024-02-01T16:59:04.928Z,13.90
2024-02-01T17:01:36.915Z,17.20
2024-02-01T17:04:05.048Z,13.00
2024-02-01T17:06:33.682Z,21.80
2024-02-01T17:09:01.204Z,8.60
2024-02-01T17:11:30.566Z,12.00
2024-02-01T17:13:59.149Z,16.90
2024-02-01T17:16:26.324Z,15.55
2024-02-01T17:18:53.806Z,10.25
2024-02-01T17:21:21.166Z,11.85
2024-02-01T17:23:48.376Z,15.38
2024-02-01T17:26:27.522Z,9.40
2024-02-01T17:28:54.641Z,19.25
2024-02-01T17:31:34.710Z,21.42
2024-02-01T17:34:06.586Z,18.40
2024-02-01T17:36:43.250Z,12.40
2024-02-01T17:39:11.927Z,10.65
2024-02-01T17:41:43.092Z,13.82
2024-02-01T17:44:35.846Z,14.13
2024-02-01T17:47:09.212Z,20.70
2024-02-01T17:49:43.181Z,16.75
2024-02-01T17:52:27.133Z,15.55
2024-02-01T17:54:54.587Z,14.63
2024-02-01T17:57:23.290Z,13.68
2024-02-01T17:59:51.173Z,18.80
2024-02-01T18:02:27.132Z,17.38
2024-02-01T18:04:55.737Z,16.58
2024-02-01T18:07:23.131Z,16.38
2024-02-01T18:09:51.880Z,20.05
2024-02-01T18:12:19.786Z,17.77
2024-02-01T18:14:52.499Z,15.68
2024-02-01T18:17:37.492Z,24.00
2024-02-01T18:20:06.087Z,14.43
2024-02-01T18:22:36.897Z,10.57
2024-02-01T18:25:04.069Z,16.40
2024-02-01T18:27:31.240Z,14.25
2024-02-01T18:29:59.953Z,13.23
2024-02-01T18:32:34.072Z,17.83
2024-02-01T18:35:02.610Z,22.40
2024-02-01T18:37:32.092Z,15.93
2024-02-01T18:39:59.303Z,20.52
2024-02-01T18:42:32.242Z,19.45
2024-02-01T18:45:00.696Z,16.38
2024-02-01T18:47:29.226Z,17.08
2024-02-01T18:49:57.445Z,16.25
2024-02-01T18:52:25.398Z,20.15
2024-02-01T18:54:52.506Z,24.10
2024-02-01T18:57:35.600Z,20.20
2024-02-01T19:00:06.192Z,15.40
2024-02-01T19:05:00.438Z,14.38
2024-02-01T19:07:27.810Z,15.45
2024-02-01T19:09:55.337Z,15.40
2024-02-01T19:12:41.787Z,17.55
2024-02-01T19:15:12.065Z,15.77
2024-02-01T19:17:41.351Z,23.27
2024-02-01T19:20:09.401Z,14.35
2024-02-01T19:22:36.498Z,11.20
2024-02-01T19:25:07.261Z,23.52
2024-02-01T19:27:40.635Z,18.00
2024-02-01T19:30:10.780Z,22.90
2024-02-01T19:32:41.125Z,25.58
2024-02-01T19:35:12.706Z,14.32
2024-02-01T19:37:53.506Z,17.85
2024-02-01T19:40:20.968Z,19.23
2024-02-01T19:42:48.144Z,19.50
2024-02-01T19:45:15.393Z,18.00
2024-02-01T19:47:43.914Z,18.20
2024-02-01T19:50:11.767Z,23.20
2024-02-01T19:52:39.072Z,16.58
2024-02-01T19:55:06.979Z,19.67
2024-02-01T19:57:34.636Z,13.90
2024-02-01T20:00:02.199Z,15.88
2024-02-01T20:02:31.839Z,20.75
2024-02-01T20:04:59.040Z,16.60
2024-02-01T20:07:26.410Z,22.17
2024-02-01T20:09:55.327Z,20.83
2024-02-01T20:12:22.897Z,18.30
2024-02-01T20:14:53.206Z,18.00
2024-02-01T20:17:22.246Z,16.88
2024-02-01T20:19:49.940Z,17.95
2024-02-01T20:22:17.163Z,21.20
2024-02-01T20:24:44.621Z,22.00
2024-02-01T20:27:14.848Z,19.88
2024-02-01T20:29:42.049Z,19.92
2024-02-01T20:32:11.376Z,31.00
2024-02-01T20:34:40.206Z,23.58
2024-02-01T20:37:11.344Z,30.10
2024-02-01T20:39:38.920Z,39.00
2024-02-01T20:42:13.325Z,30.10
2024-02-01T20:44:40.578Z,39.05
2024-02-01T20:47:12.099Z,36.95
2024-02-01T20:49:42.964Z,33.22
2024-02-01T20:52:10.663Z,32.72
2024-02-01T20:54:53.552Z,28.75
2024-02-01T20:57:30.619Z,29.52
2024-02-01T20:59:58.036Z,31.52
2024-02-01T21:02:44.190Z,32.08
2024-02-01T21:05:14.374Z,28.98
2024-02-01T21:07:41.635Z,32.88
2024-02-01T21:10:17.995Z,36.08
2024-02-01T21:12:45.303Z,37.10
2024-02-01T21:15:12.694Z,37.78
2024-02-01T21:17:41.022Z,31.27
2024-02-01T21:20:14.815Z,26.92
2024-02-01T21:22:42.003Z,21.00
2024-02-01T21:25:40.624Z,31.52
2024-02-01T21:28:12.585Z,31.10
2024-02-01T21:30:40.142Z,33.38
2024-02-01T21:33:12.787Z,39.05
2024-02-01T21:35:43.348Z,34.90
2024-02-01T21:38:11.540Z,33.63
2024-02-01T21:40:38.698Z,33.17
2024-02-01T21:43:05.916Z,34.15
2024-02-01T21:45:33.565Z,32.03
2024-02-01T21:48:00.990Z,33.92
2024-02-01T21:50:28.348Z,32.83
2024-02-01T21:52:56.200Z,39.60
2024-02-01T21:55:26.407Z,30.27
2024-02-01T21:57:57.100Z,35.05
2024-02-01T22:00:24.425Z,32.33
2024-02-01T22:02:51.693Z,31.40
2024-02-01T22:05:19.035Z,35.75
2024-02-01T22:07:46.371Z,24.95
2024-02-01T22:10:13.758Z,24.48
2024-02-01T22:12:41.011Z,25.60
2024-02-01T22:15:08.872Z,25.77
2024-02-01T22:17:37.007Z,35.22
2024-02-01T22:20:08.898Z,26.67
2024-02-01T22:22:38.003Z,23.63
2024-02-01T22:25:05.297Z,22.95
2024-02-01T22:27:32.543Z,29.60
2024-02-01T22:29:59.840Z,23.35
2024-02-01T22:32:27.030Z,24.90
2024-02-01T22:34:54.384Z,25.38
2024-02-01T22:37:21.608Z,19.92
2024-02-01T22:39:48.817Z,27.10
2024-02-01T22:42:16.032Z,23.45
2024-02-01T22:44:43.235Z,27.95
2024-02-01T22:47:10.428Z,20.73
2024-02-01T22:49:37.739Z,15.25
2024-02-01T22:52:05.062Z,21.90
2024-02-01T22:54:32.302Z,28.52
2024-02-01T22:56:59.516Z,20.67
2024-02-01T22:59:28.888Z,20.35
2024-02-01T23:01:57.826Z,27.15
2024-02-01T23:04:25.008Z,23.65
2024-02-01T23:06:52.579Z,16.70
2024-02-01T23:09:21.280Z,21.10
2024-02-01T23:11:48.678Z,27.33
2024-02-01T23:14:15.950Z,23.02
2024-02-01T23:16:44.093Z,21.48
2024-02-01T23:19:11.376Z,15.88
2024-02-01T23:21:39.837Z,18.25
2024-02-01T23:24:07.329Z,17.38
2024-02-01T23:26:34.700Z,22.60
2024-02-01T23:29:03.648Z,29.75
2024-02-01T23:31:30.831Z,23.20
2024-02-01T23:33:58.258Z,21.60
2024-02-01T23:36:25.586Z,22.15
2024-02-01T23:38:52.711Z,26.42
2024-02-01T23:41:19.821Z,33.60
2024-02-01T23:43:46.932Z,32.08
2024-02-01T23:46:14.042Z,32.45
2024-02-01T23:48:41.364Z,30.55
2024-02-01T23:51:08.574Z,28.95
2024-02-01T23:53:35.727Z,32.30
2024-02-01T23:56:03.176Z,35.53
2024-02-01T23:58:30.469Z,32.28
